Time;durP1;ratioP1;P1;durP2;ratioP2;P2;SDS_P1;SDS_P2;PMS_P1;PMS_P2;Temp;Humidity;BMP_temperature;BMP_pressure;BME280_temperature;BME280_humidity;BME280_pressure;Samples;Min_cycle;Max_cycle;Signal;HPM_P1;HPM_P2
2023/09/18 00:00:46;;;;;;;9.60;4.80;;;21.30;70.80;;;;;;4977429;28;20495;-73
2023/09/18 00:03:11;;;;;;;11.07;4.07;;;21.30;71.10;;;;;;4988178;28;20451;-71
2023/09/18 00:05:37;;;;;;;8.10;4.30;;;21.30;71.10;;;;;;4985218;28;20468;-72
2023/09/18 00:08:03;;;;;;;7.50;3.93;;;21.40;71.00;;;;;;4986840;28;20269;-72
2023/09/18 00:10:30;;;;;;;7.23;4.50;;;21.40;71.00;;;;;;4990226;28;20181;-73
2023/09/18 00:12:56;;;;;;;8.77;4.33;;;21.30;71.00;;;;;;4990198;28;20267;-72
2023/09/18 00:15:22;;;;;;;8.80;4.33;;;21.30;71.40;;;;;;4983060;28;20491;-74
2023/09/18 00:17:47;;;;;;;6.93;4.47;;;21.30;71.60;;;;;;4983031;28;20495;-72
2023/09/18 00:20:13;;;;;;;7.00;3.70;;;21.20;71.70;;;;;;4990325;28;20185;-73
2023/09/18 00:22:39;;;;;;;6.80;4.50;;;21.20;71.80;;;;;;4983305;28;20221;-72
2023/09/18 00:25:05;;;;;;;6.13;4.00;;;21.20;71.80;;;;;;4981904;28;20208;-71
2023/09/18 00:27:32;;;;;;;6.57;4.40;;;21.20;71.60;;;;;;4990158;28;20187;-72
2023/09/18 00:29:58;;;;;;;6.80;4.43;;;21.30;71.60;;;;;;4987950;28;20796;-71
2023/09/18 00:32:23;;;;;;;6.20;4.50;;;21.30;71.70;;;;;;4984446;28;20515;-71
2023/09/18 00:34:49;;;;;;;7.90;4.90;;;21.40;71.40;;;;;;4984602;28;20272;-72
2023/09/18 00:37:16;;;;;;;7.03;4.03;;;21.30;71.40;;;;;;4983244;28;20195;-71
2023/09/18 00:39:42;;;;;;;6.27;3.80;;;21.30;71.60;;;;;;4986430;28;20242;-71
2023/09/18 00:42:13;;;;;;;7.33;4.23;;;21.20;71.80;;;;;;4989844;28;20543;-70
2023/09/18 00:44:39;;;;;;;8.70;4.53;;;21.20;71.40;;;;;;4982883;28;20495;-71
2023/09/18 00:47:06;;;;;;;6.87;4.00;;;21.30;71.30;;;;;;4987932;28;20467;-72
2023/09/18 00:49:33;;;;;;;7.30;4.00;;;21.30;71.10;;;;;;4986918;28;20458;-73
2023/09/18 00:51:58;;;;;;;7.20;4.50;;;21.40;70.70;;;;;;4986522;28;20428;-72
2023/09/18 00:54:24;;;;;;;11.80;4.03;;;21.50;70.50;;;;;;4986256;28;20563;-72
2023/09/18 00:56:53;;;;;;;8.60;4.70;;;21.40;70.70;;;;;;4985292;28;20265;-71
2023/09/18 00:59:20;;;;;;;8.17;4.93;;;21.50;70.70;;;;;;4990200;28;20547;-73
2023/09/18 01:01:48;;;;;;;6.80;4.20;;;21.50;70.70;;;;;;4987566;28;20564;-72
2023/09/18 01:04:16;;;;;;;7.10;3.80;;;21.50;70.70;;;;;;4988569;28;20464;-74
2023/09/18 01:06:43;;;;;;;5.27;4.23;;;21.50;71.00;;;;;;4989236;28;20464;-72
2023/09/18 01:09:12;;;;;;;6.27;3.90;;;21.60;70.50;;;;;;4976161;28;20444;-72
2023/09/18 01:11:56;;;;;;;7.33;3.80;;;21.60;70.20;;;;;;4969928;28;20853;-72
2023/09/18 01:14:55;;;;;;;5.50;3.73;;;21.60;70.10;;;;;;4994615;28;20425;-71
2023/09/18 01:17:20;;;;;;;7.20;4.30;;;21.70;70.10;;;;;;4992037;28;20821;-72
2023/09/18 01:19:47;;;;;;;6.53;4.57;;;21.80;69.70;;;;;;4993857;28;20451;-72
2023/09/18 01:22:16;;;;;;;6.50;4.10;;;21.80;69.50;;;;;;4992888;28;20225;-71
2023/09/18 01:24:42;;;;;;;7.70;4.17;;;21.80;69.70;;;;;;4990140;28;20525;-71
2023/09/18 01:27:12;;;;;;;6.57;4.30;;;21.80;69.70;;;;;;4990757;28;20428;-71
2023/09/18 01:29:38;;;;;;;7.83;4.87;;;21.90;69.10;;;;;;4990749;28;20417;-73
2023/09/18 01:32:04;;;;;;;14.10;6.10;;;21.90;69.40;;;;;;4992802;28;20786;-71
2023/09/18 01:34:35;;;;;;;8.40;5.03;;;21.80;69.70;;;;;;4989460;28;20762;-71
2023/09/18 01:37:08;;;;;;;4.80;4.00;;;21.80;69.40;;;;;;4990138;28;20448;-72
2023/09/18 01:39:35;;;;;;;6.33;4.20;;;21.80;69.40;;;;;;4991713;28;20429;-72
2023/09/18 01:42:05;;;;;;;9.00;5.50;;;21.90;69.40;;;;;;4992769;28;20535;-73
2023/09/18 01:44:32;;;;;;;6.17;3.80;;;21.90;69.20;;;;;;4991362;28;20441;-72
2023/09/18 01:47:06;;;;;;;6.70;3.80;;;22.10;68.20;;;;;;4984963;28;20534;-72
2023/09/18 01:49:34;;;;;;;6.00;3.80;;;22.20;67.30;;;;;;4992241;28;20439;-72
2023/09/18 01:52:00;;;;;;;9.40;3.83;;;22.40;66.60;;;;;;4992326;28;20429;-71
2023/09/18 01:54:26;;;;;;;9.93;4.00;;;22.60;65.70;;;;;;4991461;28;20476;-72
2023/09/18 01:56:56;;;;;;;6.23;3.30;;;22.90;64.80;;;;;;4988353;28;20490;-73
2023/09/18 01:59:22;;;;;;;6.80;3.50;;;23.10;64.20;;;;;;4989707;28;20180;-72
2023/09/18 02:01:49;;;;;;;8.10;3.57;;;23.20;63.80;;;;;;4989997;28;20467;-72
2023/09/18 02:04:15;;;;;;;11.70;4.30;;;23.30;63.50;;;;;;4988107;28;20452;-72
2023/09/18 02:06:40;;;;;;;7.10;3.50;;;23.40;63.90;;;;;;4985538;28;20494;-72
2023/09/18 02:09:08;;;;;;;9.60;3.33;;;23.10;66.70;;;;;;4990929;28;20188;-72
2023/09/18 02:11:38;;;;;;;16.43;4.07;;;22.40;68.50;;;;;;4988815;28;20184;-72
2023/09/18 02:14:05;;;;;;;12.10;3.90;;;22.00;70.20;;;;;;4990303;28;20433;-72
2023/09/18 02:16:34;;;;;;;10.23;4.30;;;21.70;71.10;;;;;;4985277;28;20472;-71
2023/09/18 02:19:00;;;;;;;12.77;3.93;;;21.60;73.00;;;;;;4991876;28;20413;-71
2023/09/18 02:21:26;;;;;;;13.73;3.50;;;21.50;75.70;;;;;;4992381;28;20551;-72
2023/09/18 02:23:52;;;;;;;8.70;3.90;;;21.30;76.40;;;;;;4996759;28;20426;-71
2023/09/18 02:26:18;;;;;;;12.07;3.50;;;21.20;77.80;;;;;;4994412;28;20210;-70
2023/09/18 02:28:44;;;;;;;16.03;3.70;;;21.10;77.40;;;;;;4993437;28;20420;-73
2023/09/18 02:31:10;;;;;;;10.80;4.57;;;21.10;78.00;;;;;;4991217;28;20455;-71
2023/09/18 02:33:36;;;;;;;13.70;4.13;;;21.00;77.40;;;;;;4987807;28;20203;-71
2023/09/18 02:36:02;;;;;;;11.73;3.90;;;21.00;76.80;;;;;;4984814;28;20274;-72
2023/09/18 02:38:28;;;;;;;21.77;4.10;;;21.00;77.40;;;;;;4986436;28;20804;-73
2023/09/18 02:40:54;;;;;;;13.70;4.37;;;20.90;78.00;;;;;;4989264;28;20184;-72
2023/09/18 02:43:20;;;;;;;12.43;3.70;;;20.80;79.00;;;;;;4982115;28;20447;-71
2023/09/18 02:45:46;;;;;;;8.20;3.27;;;20.60;79.70;;;;;;4988956;28;20220;-73
2023/09/18 02:48:12;;;;;;;10.93;4.10;;;20.50;79.90;;;;;;4988868;28;20919;-72
2023/09/18 02:50:37;;;;;;;11.37;3.80;;;20.40;80.50;;;;;;4987620;28;20195;-72
2023/09/18 02:53:06;;;;;;;13.00;3.67;;;20.40;78.90;;;;;;4987941;28;20258;-74
2023/09/18 02:55:32;;;;;;;9.73;2.83;;;20.50;75.40;;;;;;4981892;28;20208;-73
2023/09/18 02:57:58;;;;;;;11.20;2.73;;;21.00;72.40;;;;;;4989096;28;20490;-72
2023/09/18 03:00:24;;;;;;;14.53;3.30;;;21.30;71.10;;;;;;4989903;28;20206;-73
2023/09/18 03:02:50;;;;;;;9.43;3.40;;;21.50;69.80;;;;;;4993715;28;20995;-72
2023/09/18 03:05:15;;;;;;;21.00;4.10;;;21.50;69.80;;;;;;4986161;28;21002;-73
2023/09/18 03:07:41;;;;;;;7.90;2.90;;;21.60;69.20;;;;;;4989159;28;20198;-72
2023/09/18 03:10:07;;;;;;;10.83;2.83;;;21.60;69.50;;;;;;4988134;28;20191;-73
2023/09/18 03:12:33;;;;;;;8.00;3.10;;;21.60;69.10;;;;;;4991054;28;20689;-73
2023/09/18 03:14:59;;;;;;;11.57;3.60;;;21.70;69.10;;;;;;4982821;28;20501;-72
2023/09/18 03:17:25;;;;;;;11.43;3.07;;;21.60;69.70;;;;;;4986109;28;20436;-73
2023/09/18 03:19:50;;;;;;;9.77;3.63;;;21.60;70.50;;;;;;4989963;28;20437;-72
2023/09/18 03:22:16;;;;;;;10.17;3.30;;;21.60;71.70;;;;;;4991638;28;20287;-73
2023/09/18 03:24:41;;;;;;;10.03;3.53;;;21.40;71.70;;;;;;4985841;28;20189;-72
2023/09/18 03:27:07;;;;;;;9.60;3.70;;;21.40;72.70;;;;;;4988440;28;20344;-73
2023/09/18 03:29:33;;;;;;;10.30;3.47;;;21.30;72.90;;;;;;4990895;28;20184;-71
2023/09/18 03:31:59;;;;;;;16.33;3.63;;;21.30;73.20;;;;;;4990538;28;20256;-73
2023/09/18 03:34:28;;;;;;;16.80;3.90;;;21.20;72.30;;;;;;4986437;28;21451;-72
2023/09/18 03:36:53;;;;;;;11.00;4.10;;;21.10;72.70;;;;;;4987896;28;20480;-71
2023/09/18 03:39:20;;;;;;;6.80;2.90;;;21.20;72.60;;;;;;4968636;28;21017;-72
2023/09/18 03:41:45;;;;;;;9.70;3.47;;;21.20;71.70;;;;;;4990138;28;20502;-74
2023/09/18 03:44:11;;;;;;;13.83;3.73;;;21.20;72.60;;;;;;4990327;28;20440;-70
2023/09/18 03:46:37;;;;;;;12.33;3.37;;;21.20;72.70;;;;;;4983983;28;20210;-71
2023/09/18 03:49:02;;;;;;;12.80;4.00;;;21.20;73.50;;;;;;4989898;28;20189;-72
2023/09/18 03:51:29;;;;;;;17.97;4.30;;;21.20;73.60;;;;;;4992401;28;20214;-72
2023/09/18 03:53:57;;;;;;;8.80;2.90;;;21.20;74.30;;;;;;4966904;28;20269;-71
2023/09/18 03:56:23;;;;;;;11.10;3.23;;;21.00;75.20;;;;;;4988025;28;20489;-72
2023/09/18 03:58:51;;;;;;;8.40;3.13;;;20.90;75.20;;;;;;4987396;28;20944;-71
2023/09/18 04:01:17;;;;;;;8.60;3.40;;;20.80;75.20;;;;;;4989879;28;20221;-71
2023/09/18 04:03:43;;;;;;;10.37;2.97;;;20.80;75.50;;;;;;4985878;28;20418;-71
2023/09/18 04:06:08;;;;;;;7.87;4.23;;;20.90;74.30;;;;;;4983198;28;20290;-71
2023/09/18 04:08:34;;;;;;;16.33;3.50;;;21.00;72.90;;;;;;4985594;28;20482;-71
2023/09/18 04:11:00;;;;;;;6.93;2.80;;;21.10;73.00;;;;;;4990568;28;20189;-71
2023/09/18 04:13:26;;;;;;;9.40;3.03;;;21.10;73.30;;;;;;4986398;28;20447;-72
2023/09/18 04:15:56;;;;;;;12.60;3.77;;;21.30;72.10;;;;;;4983803;28;21031;-71
2023/09/18 04:18:22;;;;;;;4.50;3.13;;;21.40;71.70;;;;;;4992084;28;20189;-72
2023/09/18 04:20:49;;;;;;;11.33;3.03;;;21.40;72.40;;;;;;4992119;28;20512;-71
2023/09/18 04:23:26;;;;;;;6.43;3.53;;;21.50;71.70;;;;;;4988318;28;20433;-72
2023/09/18 04:25:53;;;;;;;12.37;3.90;;;21.50;73.30;;;;;;4985318;28;20459;-72
2023/09/18 04:28:19;;;;;;;8.77;3.73;;;21.50;73.00;;;;;;4970024;28;20679;-70
2023/09/18 04:30:46;;;;;;;8.07;3.30;;;21.60;73.30;;;;;;4991225;28;20459;-76
2023/09/18 04:33:14;;;;;;;9.33;3.40;;;21.60;73.50;;;;;;4990916;28;20948;-73
2023/09/18 04:35:39;;;;;;;8.10;3.10;;;21.60;73.00;;;;;;4988878;28;20454;-71
2023/09/18 04:38:08;;;;;;;7.20;3.30;;;21.60;71.70;;;;;;4990926;28;20422;-72
2023/09/18 04:40:34;;;;;;;7.40;3.40;;;21.60;71.60;;;;;;4988716;28;20243;-72
2023/09/18 04:43:00;;;;;;;8.53;3.57;;;21.70;71.70;;;;;;4995651;28;20538;-71
2023/09/18 04:45:26;;;;;;;7.17;3.40;;;21.60;71.80;;;;;;4991414;28;20470;-72
2023/09/18 04:47:53;;;;;;;8.40;3.10;;;21.60;72.10;;;;;;4993013;28;20445;-72
2023/09/18 04:50:18;;;;;;;6.17;3.30;;;21.60;71.40;;;;;;4992419;28;20953;-71
2023/09/18 04:52:44;;;;;;;7.73;3.50;;;21.50;71.70;;;;;;4992796;28;20420;-71
2023/09/18 04:55:11;;;;;;;8.63;3.33;;;21.50;72.40;;;;;;4984553;28;20257;-72
2023/09/18 04:57:37;;;;;;;8.27;2.70;;;21.50;72.40;;;;;;4993615;28;20185;-71
2023/09/18 05:00:07;;;;;;;10.13;3.73;;;21.50;72.30;;;;;;4991601;28;20416;-74
2023/09/18 05:02:34;;;;;;;11.50;3.70;;;21.50;71.70;;;;;;4990688;28;20475;-72
2023/09/18 05:04:59;;;;;;;12.10;3.83;;;21.40;72.00;;;;;;4990862;28;21049;-72
2023/09/18 05:07:25;;;;;;;11.50;4.13;;;21.40;72.40;;;;;;4994271;28;20454;-71
2023/09/18 05:09:52;;;;;;;10.37;3.63;;;21.40;72.70;;;;;;4992199;28;20621;-73
2023/09/18 05:12:17;;;;;;;7.53;3.17;;;21.30;72.40;;;;;;4995938;28;20432;-74
2023/09/18 05:14:43;;;;;;;8.00;3.40;;;21.40;72.40;;;;;;4988264;28;20439;-75
2023/09/18 05:17:12;;;;;;;8.37;3.90;;;21.40;73.20;;;;;;4998802;28;20737;-74
2023/09/18 05:19:37;;;;;;;8.63;3.17;;;21.40;73.00;;;;;;4993545;28;20547;-74
2023/09/18 05:22:03;;;;;;;9.00;3.10;;;21.40;72.40;;;;;;4993783;28;20480;-76
2023/09/18 05:24:29;;;;;;;8.83;3.80;;;21.50;72.40;;;;;;4990015;28;20199;-75
2023/09/18 05:26:55;;;;;;;11.50;3.60;;;21.50;72.40;;;;;;4990904;28;20647;-75
2023/09/18 05:29:20;;;;;;;5.20;2.60;;;21.50;72.00;;;;;;4992660;28;20190;-75
2023/09/18 05:31:46;;;;;;;6.90;3.33;;;21.50;71.40;;;;;;4995174;28;20202;-73
2023/09/18 05:34:12;;;;;;;7.23;3.27;;;21.40;72.00;;;;;;4993805;28;20663;-74
2023/09/18 05:36:38;;;;;;;8.50;3.50;;;21.40;72.10;;;;;;4988963;28;20661;-74
2023/09/18 05:39:04;;;;;;;14.33;3.10;;;21.40;72.30;;;;;;4993508;28;20535;-77
2023/09/18 05:41:30;;;;;;;8.13;3.17;;;21.40;72.40;;;;;;4993721;28;20216;-75
2023/09/18 05:43:56;;;;;;;6.80;2.90;;;21.30;73.20;;;;;;4993627;28;20835;-73
2023/09/18 05:46:22;;;;;;;6.97;3.27;;;21.20;73.20;;;;;;4986303;28;20313;-76
2023/09/18 05:48:47;;;;;;;7.30;3.27;;;21.20;73.30;;;;;;4993601;28;20994;-75
2023/09/18 05:51:13;;;;;;;8.60;3.03;;;21.20;73.60;;;;;;4993576;28;20254;-74
2023/09/18 05:53:39;;;;;;;6.27;3.60;;;21.10;73.50;;;;;;4992957;28;20276;-74
2023/09/18 05:56:04;;;;;;;6.70;3.10;;;21.20;73.50;;;;;;4987083;28;20238;-74
2023/09/18 05:58:32;;;;;;;9.00;3.77;;;21.20;73.90;;;;;;4993004;28;20189;-74
2023/09/18 06:01:00;;;;;;;6.43;3.30;;;21.30;73.50;;;;;;4996333;28;20215;-73
2023/09/18 06:03:26;;;;;;;8.00;3.37;;;21.30;72.60;;;;;;4992427;28;20453;-75
2023/09/18 06:05:52;;;;;;;7.00;3.57;;;21.40;72.40;;;;;;4990166;28;21007;-73
2023/09/18 06:08:18;;;;;;;9.70;3.03;;;21.30;72.10;;;;;;4997540;28;20449;-75
2023/09/18 06:10:44;;;;;;;8.90;3.50;;;21.30;72.40;;;;;;4995358;28;20183;-74
2023/09/18 06:13:10;;;;;;;8.20;3.20;;;21.40;72.30;;;;;;5000951;28;20463;-76
2023/09/18 06:15:36;;;;;;;6.33;3.07;;;21.40;72.00;;;;;;4991163;28;20579;-74
2023/09/18 06:18:03;;;;;;;12.93;3.80;;;21.40;72.30;;;;;;4990423;28;20809;-75
2023/09/18 06:20:28;;;;;;;7.07;3.57;;;21.40;72.40;;;;;;4998299;28;20186;-74
2023/09/18 06:22:54;;;;;;;6.87;3.70;;;21.30;72.60;;;;;;4993977;28;20542;-74
2023/09/18 06:25:20;;;;;;;10.13;3.57;;;21.30;72.60;;;;;;4988733;28;20267;-72
2023/09/18 06:27:46;;;;;;;12.07;3.33;;;21.30;72.30;;;;;;4985635;28;20184;-74
2023/09/18 06:30:11;;;;;;;8.63;3.27;;;21.30;72.70;;;;;;4994909;28;20252;-72
2023/09/18 06:32:37;;;;;;;8.17;3.20;;;21.30;73.00;;;;;;4987941;28;20208;-73
2023/09/18 06:35:03;;;;;;;5.00;2.90;;;21.30;74.20;;;;;;4987863;28;21131;-72
2023/09/18 06:37:29;;;;;;;17.83;4.23;;;21.10;75.20;;;;;;4988750;28;20210;-72
2023/09/18 06:39:56;;;;;;;9.83;4.20;;;20.90;75.90;;;;;;4991376;28;20186;-71
2023/09/18 06:42:22;;;;;;;11.20;3.20;;;20.80;77.00;;;;;;4985896;28;20222;-71
2023/09/18 06:44:47;;;;;;;10.00;3.50;;;20.60;77.60;;;;;;4988242;28;20450;-73
2023/09/18 06:47:14;;;;;;;9.10;2.70;;;20.50;78.60;;;;;;4991457;28;20214;-71
2023/09/18 06:49:41;;;;;;;12.80;3.93;;;20.30;79.20;;;;;;4990309;28;20211;-73
2023/09/18 06:52:07;;;;;;;16.50;3.43;;;20.20;79.30;;;;;;4988627;28;20438;-72
2023/09/18 06:54:33;;;;;;;8.27;2.77;;;20.10;79.60;;;;;;4987280;28;20504;-73
2023/09/18 06:56:58;;;;;;;12.03;3.03;;;20.20;79.60;;;;;;4986523;28;20517;-73
2023/09/18 06:59:24;;;;;;;9.43;2.90;;;20.20;79.50;;;;;;4991086;28;20195;-73
2023/09/18 07:01:50;;;;;;;6.03;2.87;;;20.20;78.60;;;;;;4988628;28;20204;-72
2023/09/18 07:04:15;;;;;;;4.13;2.40;;;20.30;77.80;;;;;;4986078;28;20294;-73
2023/09/18 07:06:41;;;;;;;3.77;2.40;;;20.40;77.10;;;;;;4985874;28;20210;-73
2023/09/18 07:09:07;;;;;;;6.67;2.73;;;20.50;77.40;;;;;;4987468;28;20282;-73
2023/09/18 07:11:33;;;;;;;7.73;3.03;;;20.50;77.40;;;;;;4992190;28;20180;-72
2023/09/18 07:13:59;;;;;;;9.20;2.83;;;20.50;77.60;;;;;;4989802;28;20698;-72
2023/09/18 07:16:25;;;;;;;9.00;2.30;;;20.60;77.60;;;;;;4988900;28;20545;-72
2023/09/18 07:18:50;;;;;;;5.97;2.40;;;20.50;77.60;;;;;;4986063;28;20661;-73
2023/09/18 07:21:16;;;;;;;6.97;2.80;;;20.50;77.60;;;;;;4991162;28;20223;-73
2023/09/18 07:23:42;;;;;;;6.87;2.40;;;20.60;77.40;;;;;;4989303;28;20188;-71
2023/09/18 07:26:07;;;;;;;4.33;1.93;;;20.70;77.40;;;;;;4985344;28;20719;-74
2023/09/18 07:28:33;;;;;;;8.50;2.47;;;20.80;76.20;;;;;;4991382;28;20188;-73
2023/09/18 07:31:08;;;;;;;7.60;2.47;;;20.90;75.50;;;;;;4991301;28;20189;-72
2023/09/18 07:33:34;;;;;;;8.83;2.50;;;20.90;74.30;;;;;;4990703;28;20183;-73
2023/09/18 07:36:00;;;;;;;5.57;2.27;;;21.00;73.70;;;;;;4971257;28;20864;-72
2023/09/18 07:38:26;;;;;;;7.40;2.07;;;21.10;73.60;;;;;;4991243;28;20199;-72
2023/09/18 07:40:51;;;;;;;6.03;2.37;;;21.20;73.00;;;;;;4991590;28;20468;-73
2023/09/18 07:43:17;;;;;;;3.97;1.87;;;21.30;72.40;;;;;;4989483;28;20207;-73
2023/09/18 07:45:42;;;;;;;3.20;1.63;;;21.30;71.60;;;;;;4987741;28;20211;-73
2023/09/18 07:48:08;;;;;;;6.37;1.87;;;21.30;71.70;;;;;;4988867;28;20198;-75
2023/09/18 07:50:37;;;;;;;6.30;1.70;;;21.30;71.70;;;;;;4990967;28;20193;-73
2023/09/18 07:53:03;;;;;;;7.87;1.80;;;21.40;70.80;;;;;;4987287;28;20212;-73
2023/09/18 07:55:29;;;;;;;3.30;1.50;;;21.40;71.00;;;;;;4985907;28;20468;-73
2023/09/18 07:57:55;;;;;;;3.23;1.50;;;21.40;71.00;;;;;;4988532;28;20432;-73
2023/09/18 08:00:22;;;;;;;4.83;1.60;;;21.40;70.70;;;;;;4991422;28;20440;-72
2023/09/18 08:02:49;;;;;;;4.00;1.50;;;21.50;71.00;;;;;;4986744;28;20586;-74
2023/09/18 08:05:15;;;;;;;5.43;1.73;;;21.50;70.20;;;;;;4986310;28;20472;-73
2023/09/18 08:07:41;;;;;;;5.00;1.70;;;21.50;70.50;;;;;;4987163;28;20459;-71
2023/09/18 08:10:08;;;;;;;5.20;1.60;;;21.50;71.00;;;;;;4990806;28;20459;-73
2023/09/18 08:12:34;;;;;;;6.03;1.57;;;21.60;70.40;;;;;;4988198;28;20189;-74
2023/09/18 08:15:00;;;;;;;4.50;1.60;;;21.70;70.20;;;;;;4987012;28;20481;-73
2023/09/18 08:17:26;;;;;;;5.77;1.60;;;21.70;69.80;;;;;;4977615;28;20459;-71
2023/09/18 08:19:53;;;;;;;4.60;1.63;;;21.60;69.80;;;;;;4994896;28;20195;-73
2023/09/18 08:22:20;;;;;;;4.00;1.50;;;21.50;70.50;;;;;;4992406;28;20219;-72
2023/09/18 08:24:52;;;;;;;3.40;1.37;;;21.40;70.20;;;;;;4988723;28;21050;-74
2023/09/18 08:27:18;;;;;;;3.30;1.67;;;21.40;70.50;;;;;;4984730;28;20451;-72
2023/09/18 08:29:45;;;;;;;6.33;1.97;;;21.40;70.80;;;;;;4990132;28;20539;-72
2023/09/18 08:32:10;;;;;;;4.57;1.70;;;21.30;71.00;;;;;;4991086;28;20439;-72
2023/09/18 08:34:36;;;;;;;3.47;1.43;;;21.30;70.80;;;;;;4986943;28;20495;-73
2023/09/18 08:37:04;;;;;;;3.17;1.93;;;21.30;71.30;;;;;;4988569;28;20191;-71
2023/09/18 08:39:32;;;;;;;3.53;1.53;;;21.20;72.10;;;;;;4978532;28;20196;-72
2023/09/18 08:42:04;;;;;;;5.70;1.20;;;21.10;73.30;;;;;;4986914;28;20482;-72
2023/09/18 08:44:30;;;;;;;4.00;1.53;;;20.80;74.20;;;;;;4988953;28;20443;-72
2023/09/18 08:46:56;;;;;;;5.87;1.80;;;20.60;75.70;;;;;;4985246;28;20457;-73
2023/09/18 08:49:23;;;;;;;6.30;1.50;;;20.50;75.90;;;;;;4988695;28;20576;-71
2023/09/18 08:51:50;;;;;;;3.93;1.40;;;20.50;75.90;;;;;;4991482;28;20510;-73
2023/09/18 08:54:16;;;;;;;2.77;1.60;;;20.50;76.10;;;;;;4991950;28;20997;-72
2023/09/18 08:56:42;;;;;;;8.93;1.70;;;20.50;76.50;;;;;;4985699;28;21017;-73
2023/09/18 08:59:08;;;;;;;3.00;1.17;;;20.30;77.80;;;;;;4990543;28;20426;-73
2023/09/18 09:01:35;;;;;;;3.17;1.63;;;20.00;78.90;;;;;;4971591;28;20213;-73
2023/09/18 09:04:00;;;;;;;3.57;1.80;;;19.80;79.60;;;;;;4965834;28;20193;-74
2023/09/18 09:06:26;;;;;;;2.13;1.60;;;19.50;80.30;;;;;;4984141;28;20466;-72
2023/09/18 09:08:52;;;;;;;4.93;1.90;;;19.40;80.50;;;;;;4990264;28;20211;-73
2023/09/18 09:11:19;;;;;;;4.93;1.90;;;19.30;80.60;;;;;;4965107;28;20220;-73
2023/09/18 09:13:45;;;;;;;4.03;1.50;;;19.30;80.50;;;;;;4986983;28;20248;-72
2023/09/18 09:16:12;;;;;;;3.17;1.80;;;19.30;80.80;;;;;;4985679;28;20986;-73
2023/09/18 09:18:49;;;;;;;2.97;1.70;;;19.30;81.20;;;;;;4989558;28;21033;-71
2023/09/18 09:21:15;;;;;;;2.97;1.23;;;19.20;81.80;;;;;;4990344;28;20979;-73
2023/09/18 09:23:51;;;;;;;3.10;1.77;;;19.10;82.50;;;;;;4990181;28;20425;-72
2023/09/18 09:26:19;;;;;;;4.03;1.67;;;19.10;83.00;;;;;;4988142;28;20489;-71
2023/09/18 09:28:45;;;;;;;4.10;1.80;;;19.00;83.40;;;;;;4993448;28;20438;-72
2023/09/18 09:31:11;;;;;;;8.20;1.90;;;19.00;83.70;;;;;;4992537;28;20479;-72
2023/09/18 09:33:40;;;;;;;4.23;1.90;;;18.90;83.40;;;;;;4976506;28;20465;-72
2023/09/18 09:36:06;;;;;;;2.40;1.47;;;18.90;83.70;;;;;;4991060;28;20271;-73
2023/09/18 09:38:34;;;;;;;6.07;2.00;;;18.90;83.40;;;;;;4991582;28;20427;-72
2023/09/18 09:41:01;;;;;;;5.13;1.90;;;18.90;83.80;;;;;;4992045;28;20455;-74
2023/09/18 09:43:29;;;;;;;3.60;2.50;;;19.00;83.70;;;;;;4994103;28;20445;-72
2023/09/18 09:45:58;;;;;;;2.90;1.90;;;19.10;84.00;;;;;;4985749;28;20507;-72
2023/09/18 09:48:27;;;;;;;4.73;2.20;;;19.10;83.80;;;;;;4993336;28;20460;-71
2023/09/18 09:50:59;;;;;;;6.83;1.90;;;19.30;82.80;;;;;;4998852;28;20439;-71
2023/09/18 09:53:46;;;;;;;4.93;2.30;;;19.40;82.50;;;;;;4994074;28;20576;-72
2023/09/18 09:56:13;;;;;;;6.33;2.40;;;19.60;82.70;;;;;;4987475;28;20471;-73
2023/09/18 09:58:41;;;;;;;6.13;2.23;;;19.80;82.80;;;;;;4992924;28;20442;-71
2023/09/18 10:01:10;;;;;;;3.50;1.90;;;20.00;82.70;;;;;;4993379;28;20445;-72
2023/09/18 10:03:39;;;;;;;7.70;2.27;;;20.20;82.70;;;;;;4986831;28;20562;-71
2023/09/18 10:06:06;;;;;;;3.77;1.60;;;20.30;81.80;;;;;;4988572;28;20490;-72
2023/09/18 10:08:35;;;;;;;4.60;1.97;;;20.50;80.50;;;;;;4981110;28;20478;-73
2023/09/18 10:11:10;;;;;;;4.30;2.00;;;20.70;80.30;;;;;;4989436;28;20440;-73
2023/09/18 10:13:52;;;;;;;7.40;2.13;;;20.90;80.00;;;;;;4990168;28;20423;-72
2023/09/18 10:16:21;;;;;;;4.60;1.90;;;21.00;79.50;;;;;;4987250;28;20495;-73
2023/09/18 10:19:04;;;;;;;4.80;2.00;;;21.10;79.00;;;;;;4986080;28;21113;-76
2023/09/18 10:21:35;;;;;;;9.40;2.27;;;21.10;79.00;;;;;;4989076;28;20469;-73
2023/09/18 10:24:23;;;;;;;4.50;1.90;;;21.00;79.00;;;;;;4992319;28;20490;-71
2023/09/18 10:27:05;;;;;;;4.77;1.90;;;20.90;79.20;;;;;;4981900;28;20487;-73
2023/09/18 10:29:33;;;;;;;4.20;2.03;;;20.90;79.70;;;;;;4989512;28;20432;-71
2023/09/18 10:31:59;;;;;;;5.13;2.40;;;20.90;80.00;;;;;;4993523;28;20437;-73
2023/09/18 10:34:25;;;;;;;4.97;2.23;;;20.70;79.30;;;;;;4993789;28;20437;-73
2023/09/18 10:36:52;;;;;;;7.60;1.90;;;20.60;79.90;;;;;;4987597;28;20477;-73
2023/09/18 10:39:22;;;;;;;8.50;2.20;;;20.50;80.30;;;;;;4994056;28;20994;-72
2023/09/18 10:41:51;;;;;;;8.23;2.23;;;20.40;80.60;;;;;;4990948;28;20470;-73
2023/09/18 10:44:17;;;;;;;5.10;2.07;;;20.30;81.10;;;;;;4975282;28;20508;-72
2023/09/18 10:46:45;;;;;;;3.63;2.07;;;20.20;81.20;;;;;;4990844;28;20509;-74
2023/09/18 10:49:11;;;;;;;4.27;1.90;;;20.10;81.20;;;;;;4992501;28;21342;-72
2023/09/18 10:51:42;;;;;;;3.73;1.77;;;20.00;81.40;;;;;;4973432;28;20548;-72
2023/09/18 10:54:08;;;;;;;8.50;1.70;;;19.90;80.90;;;;;;4993932;28;20446;-74
2023/09/18 10:56:36;;;;;;;4.87;1.63;;;19.80;81.40;;;;;;4984584;28;20466;-74
2023/09/18 10:59:06;;;;;;;2.77;1.67;;;19.80;81.10;;;;;;4992853;28;21020;-72
2023/09/18 11:01:32;;;;;;;1.83;1.60;;;19.80;81.40;;;;;;4985946;28;21082;-74
2023/09/18 11:04:02;;;;;;;4.33;1.70;;;19.90;80.60;;;;;;4996418;28;20437;-73
2023/09/18 11:06:30;;;;;;;5.33;1.83;;;19.90;80.30;;;;;;4990267;28;20450;-73
2023/09/18 11:09:09;;;;;;;2.63;1.60;;;19.90;80.80;;;;;;4989429;28;20441;-74
2023/09/18 11:11:35;;;;;;;4.17;1.87;;;19.80;80.60;;;;;;4991586;28;20949;-75
2023/09/18 11:14:02;;;;;;;2.83;1.57;;;19.90;81.10;;;;;;4990606;28;20529;-72
2023/09/18 11:16:27;;;;;;;3.60;1.90;;;19.90;80.50;;;;;;4991446;28;20488;-73
2023/09/18 11:18:59;;;;;;;6.10;1.90;;;19.90;80.20;;;;;;4992564;28;20427;-74
2023/09/18 11:21:29;;;;;;;5.87;2.10;;;19.90;80.60;;;;;;4994561;28;20274;-73
2023/09/18 11:24:11;;;;;;;5.23;2.30;;;19.90;80.80;;;;;;4989961;28;20846;-73
2023/09/18 11:26:40;;;;;;;5.20;1.67;;;19.80;80.80;;;;;;4970445;28;20489;-73
2023/09/18 11:29:09;;;;;;;5.17;2.17;;;19.80;81.10;;;;;;4993449;28;20521;-71
2023/09/18 11:31:51;;;;;;;4.77;2.00;;;19.90;81.40;;;;;;4991171;28;20441;-72
2023/09/18 11:34:38;;;;;;;4.60;2.40;;;20.00;80.90;;;;;;4993062;28;20449;-72
2023/09/18 11:37:25;;;;;;;4.20;2.00;;;20.10;81.10;;;;;;4987624;28;20442;-72
2023/09/18 11:39:55;;;;;;;4.87;1.50;;;20.20;80.20;;;;;;4994523;28;20457;-76
2023/09/18 11:42:26;;;;;;;2.93;1.40;;;20.20;79.30;;;;;;5000477;28;20944;-72
2023/09/18 11:44:52;;;;;;;3.93;1.83;;;20.10;78.60;;;;;;4977121;28;20461;-74
2023/09/18 11:47:23;;;;;;;4.90;1.50;;;20.10;79.00;;;;;;4997409;28;20505;-73
2023/09/18 11:49:54;;;;;;;7.10;1.40;;;20.10;79.30;;;;;;4993788;28;20804;-73
2023/09/18 11:52:22;;;;;;;3.00;1.40;;;20.10;79.60;;;;;;4993548;28;20800;-74
2023/09/18 11:54:48;;;;;;;4.43;1.80;;;20.20;79.60;;;;;;4991095;28;20441;-73
2023/09/18 11:57:14;;;;;;;5.10;1.20;;;20.40;79.60;;;;;;4988191;28;20430;-71
2023/09/18 11:59:43;;;;;;;4.80;1.93;;;20.40;79.00;;;;;;4993266;28;20946;-73
2023/09/18 12:02:20;;;;;;;3.03;1.40;;;20.40;79.20;;;;;;4991351;28;20504;-73
2023/09/18 12:04:46;;;;;;;2.90;1.83;;;20.40;79.20;;;;;;4984373;28;20505;-72
2023/09/18 12:07:12;;;;;;;2.23;1.40;;;20.30;79.60;;;;;;4991094;28;20517;-72
2023/09/18 12:09:39;;;;;;;6.47;1.70;;;20.40;79.60;;;;;;4989237;28;20445;-74
2023/09/18 12:12:09;;;;;;;3.43;1.50;;;20.50;79.50;;;;;;4989354;28;20217;-73
2023/09/18 12:14:35;;;;;;;2.23;1.30;;;20.50;79.00;;;;;;4989831;28;20481;-73
2023/09/18 12:17:03;;;;;;;4.37;1.63;;;20.50;79.00;;;;;;4988075;28;20517;-72
2023/09/18 12:19:28;;;;;;;2.70;1.77;;;20.50;78.90;;;;;;4987456;28;20411;-73
2023/09/18 12:21:54;;;;;;;4.43;1.63;;;20.60;78.60;;;;;;4991118;28;20473;-73
2023/09/18 12:24:24;;;;;;;4.63;2.00;;;20.60;78.90;;;;;;4991062;28;20434;-73
2023/09/18 12:26:51;;;;;;;2.73;1.33;;;20.70;78.70;;;;;;4988205;28;20294;-72
2023/09/18 12:29:17;;;;;;;3.37;1.50;;;20.60;78.70;;;;;;4990733;28;20446;-72
2023/09/18 12:31:45;;;;;;;3.10;1.50;;;20.60;79.00;;;;;;4994471;28;20430;-74
2023/09/18 12:34:23;;;;;;;5.00;1.83;;;20.60;78.90;;;;;;4990646;28;20194;-74
2023/09/18 12:36:50;;;;;;;2.33;1.50;;;20.60;79.00;;;;;;4985129;28;20858;-73
2023/09/18 12:39:16;;;;;;;3.87;1.90;;;20.80;79.20;;;;;;4987443;28;20480;-73
2023/09/18 12:41:47;;;;;;;3.33;1.70;;;20.90;78.60;;;;;;4985719;28;21026;-72
2023/09/18 12:44:16;;;;;;;4.40;2.17;;;21.10;77.70;;;;;;4988898;28;20443;-73
2023/09/18 12:46:42;;;;;;;6.20;1.90;;;21.30;77.70;;;;;;4987318;28;20459;-73